sensor_id;sensor_type;location;lat;lon;timestamp;P1;durP1;ratioP1;P2;durP2;ratioP2
27025;SDS011;14565;48.626;8.978;2023-06-22T00:00:39;13.85;;;10.90;;
27025;SDS011;14565;48.626;8.978;2023-06-22T00:03:07;13.52;;;10.32;;
27025;SDS011;14565;48.626;8.978;2023-06-22T00:05:33;18.30;;;11.20;;
27025;SDS011;14565;48.626;8.978;2023-06-22T00:08:01;14.40;;;10.35;;
27025;SDS011;14565;48.626;8.978;2023-06-22T00:10:28;13.10;;;10.40;;
27025;SDS011;14565;48.626;8.978;2023-06-22T00:12:53;17.20;;;10.90;;
27025;SDS011;14565;48.626;8.978;2023-06-22T00:15:19;11.60;;;10.05;;
27025;SDS011;14565;48.626;8.978;2023-06-22T00:17:45;16.02;;;10.65;;
27025;SDS011;14565;48.626;8.978;2023-06-22T00:20:10;14.45;;;10.25;;
27025;SDS011;14565;48.626;8.978;2023-06-22T00:22:36;13.20;;;10.70;;
27025;SDS011;14565;48.626;8.978;2023-06-22T00:25:05;17.10;;;10.87;;
27025;SDS011;14565;48.626;8.978;2023-06-22T00:27:32;14.45;;;10.52;;
27025;SDS011;14565;48.626;8.978;2023-06-22T00:29:57;16.60;;;10.60;;
27025;SDS011;14565;48.626;8.978;2023-06-22T00:32:29;15.52;;;10.73;;
27025;SDS011;14565;48.626;8.978;2023-06-22T00:34:55;17.92;;;11.43;;
27025;SDS011;14565;48.626;8.978;2023-06-22T00:37:20;17.40;;;10.95;;
27025;SDS011;14565;48.626;8.978;2023-06-22T00:39:50;15.52;;;10.27;;
27025;SDS011;14565;48.626;8.978;2023-06-22T00:42:16;15.85;;;11.13;;
27025;SDS011;14565;48.626;8.978;2023-06-22T00:44:42;12.88;;;10.70;;
27025;SDS011;14565;48.626;8.978;2023-06-22T00:47:09;17.90;;;11.40;;
27025;SDS011;14565;48.626;8.978;2023-06-22T00:49:37;15.65;;;11.23;;
27025;SDS011;14565;48.626;8.978;2023-06-22T00:52:03;13.23;;;10.43;;
27025;SDS011;14565;48.626;8.978;2023-06-22T00:54:42;16.33;;;11.63;;
27025;SDS011;14565;48.626;8.978;2023-06-22T00:57:11;14.93;;;11.45;;
27025;SDS011;14565;48.626;8.978;2023-06-22T00:59:40;15.73;;;11.05;;
27025;SDS011;14565;48.626;8.978;2023-06-22T01:02:07;14.27;;;11.00;;
27025;SDS011;14565;48.626;8.978;2023-06-22T01:04:35;18.45;;;12.82;;
27025;SDS011;14565;48.626;8.978;2023-06-22T01:12:48;15.60;;;12.30;;
27025;SDS011;14565;48.626;8.978;2023-06-22T01:15:28;19.70;;;13.15;;
27025;SDS011;14565;48.626;8.978;2023-06-22T01:17:58;16.27;;;12.95;;
27025;SDS011;14565;48.626;8.978;2023-06-22T01:20:26;15.80;;;13.02;;
27025;SDS011;14565;48.626;8.978;2023-06-22T01:22:59;15.85;;;12.77;;
27025;SDS011;14565;48.626;8.978;2023-06-22T01:25:45;17.55;;;13.70;;
27025;SDS011;14565;48.626;8.978;2023-06-22T01:31:18;22.33;;;13.73;;
27025;SDS011;14565;48.626;8.978;2023-06-22T01:34:01;16.42;;;12.50;;
27025;SDS011;14565;48.626;8.978;2023-06-22T01:36:29;21.15;;;13.40;;
27025;SDS011;14565;48.626;8.978;2023-06-22T01:38:57;22.25;;;14.10;;
27025;SDS011;14565;48.626;8.978;2023-06-22T01:41:28;19.10;;;13.13;;
27025;SDS011;14565;48.626;8.978;2023-06-22T01:43:55;17.73;;;13.27;;
27025;SDS011;14565;48.626;8.978;2023-06-22T01:46:21;17.67;;;14.18;;
27025;SDS011;14565;48.626;8.978;2023-06-22T01:48:48;21.45;;;15.32;;
27025;SDS011;14565;48.626;8.978;2023-06-22T01:51:14;16.20;;;13.57;;
27025;SDS011;14565;48.626;8.978;2023-06-22T01:53:40;18.38;;;14.13;;
27025;SDS011;14565;48.626;8.978;2023-06-22T01:56:06;19.50;;;14.68;;
27025;SDS011;14565;48.626;8.978;2023-06-22T01:58:32;21.00;;;13.45;;
27025;SDS011;14565;48.626;8.978;2023-06-22T02:01:01;17.50;;;13.77;;
27025;SDS011;14565;48.626;8.978;2023-06-22T02:03:34;18.05;;;12.68;;
27025;SDS011;14565;48.626;8.978;2023-06-22T02:06:18;21.15;;;14.93;;
27025;SDS011;14565;48.626;8.978;2023-06-22T02:08:51;18.17;;;13.00;;
27025;SDS011;14565;48.626;8.978;2023-06-22T02:11:20;19.95;;;12.77;;
27025;SDS011;14565;48.626;8.978;2023-06-22T02:13:47;16.50;;;13.63;;
27025;SDS011;14565;48.626;8.978;2023-06-22T02:16:13;16.42;;;13.00;;
27025;SDS011;14565;48.626;8.978;2023-06-22T02:18:47;21.50;;;14.27;;
27025;SDS011;14565;48.626;8.978;2023-06-22T02:21:15;17.60;;;12.60;;
27025;SDS011;14565;48.626;8.978;2023-06-22T02:23:42;16.50;;;11.80;;
27025;SDS011;14565;48.626;8.978;2023-06-22T02:26:07;15.90;;;12.57;;
27025;SDS011;14565;48.626;8.978;2023-06-22T02:28:33;20.23;;;12.75;;
27025;SDS011;14565;48.626;8.978;2023-06-22T02:30:59;19.45;;;13.05;;
27025;SDS011;14565;48.626;8.978;2023-06-22T02:33:24;17.95;;;12.82;;
27025;SDS011;14565;48.626;8.978;2023-06-22T02:35:50;20.65;;;14.80;;
27025;SDS011;14565;48.626;8.978;2023-06-22T02:38:15;21.38;;;13.77;;
27025;SDS011;14565;48.626;8.978;2023-06-22T02:40:42;21.05;;;14.55;;
27025;SDS011;14565;48.626;8.978;2023-06-22T02:43:08;21.15;;;14.13;;
27025;SDS011;14565;48.626;8.978;2023-06-22T02:45:33;22.00;;;14.50;;
27025;SDS011;14565;48.626;8.978;2023-06-22T02:47:59;21.42;;;14.70;;
27025;SDS011;14565;48.626;8.978;2023-06-22T02:50:25;18.00;;;13.00;;
27025;SDS011;14565;48.626;8.978;2023-06-22T02:52:50;20.92;;;14.45;;
27025;SDS011;14565;48.626;8.978;2023-06-22T02:55:16;18.25;;;14.30;;
27025;SDS011;14565;48.626;8.978;2023-06-22T02:57:42;23.20;;;14.32;;
27025;SDS011;14565;48.626;8.978;2023-06-22T03:00:09;18.95;;;14.25;;
27025;SDS011;14565;48.626;8.978;2023-06-22T03:02:48;20.63;;;13.70;;
27025;SDS011;14565;48.626;8.978;2023-06-22T03:05:14;22.17;;;14.68;;
27025;SDS011;14565;48.626;8.978;2023-06-22T03:07:43;23.55;;;14.23;;
27025;SDS011;14565;48.626;8.978;2023-06-22T03:10:09;26.17;;;16.42;;
27025;SDS011;14565;48.626;8.978;2023-06-22T03:12:36;21.10;;;15.27;;
27025;SDS011;14565;48.626;8.978;2023-06-22T03:15:03;19.70;;;14.60;;
27025;SDS011;14565;48.626;8.978;2023-06-22T03:17:30;21.40;;;14.35;;
27025;SDS011;14565;48.626;8.978;2023-06-22T03:19:56;23.60;;;14.20;;
27025;SDS011;14565;48.626;8.978;2023-06-22T03:22:21;20.80;;;13.02;;
27025;SDS011;14565;48.626;8.978;2023-06-22T03:24:47;20.83;;;13.15;;
27025;SDS011;14565;48.626;8.978;2023-06-22T03:27:12;22.30;;;13.57;;
27025;SDS011;14565;48.626;8.978;2023-06-22T03:29:38;20.85;;;13.30;;
27025;SDS011;14565;48.626;8.978;2023-06-22T03:32:04;20.85;;;13.57;;
27025;SDS011;14565;48.626;8.978;2023-06-22T03:34:31;25.80;;;14.17;;
27025;SDS011;14565;48.626;8.978;2023-06-22T03:37:01;18.98;;;13.43;;
27025;SDS011;14565;48.626;8.978;2023-06-22T03:39:26;18.52;;;13.00;;
27025;SDS011;14565;48.626;8.978;2023-06-22T03:41:52;20.63;;;13.48;;
27025;SDS011;14565;48.626;8.978;2023-06-22T03:44:18;20.95;;;13.20;;
27025;SDS011;14565;48.626;8.978;2023-06-22T03:46:43;30.88;;;12.90;;
27025;SDS011;14565;48.626;8.978;2023-06-22T03:49:09;26.05;;;13.75;;
27025;SDS011;14565;48.626;8.978;2023-06-22T03:51:34;26.38;;;12.90;;
27025;SDS011;14565;48.626;8.978;2023-06-22T03:54:00;20.20;;;13.38;;
27025;SDS011;14565;48.626;8.978;2023-06-22T03:56:26;18.90;;;12.75;;
27025;SDS011;14565;48.626;8.978;2023-06-22T03:58:51;24.90;;;13.18;;
27025;SDS011;14565;48.626;8.978;2023-06-22T04:01:17;23.95;;;12.07;;
27025;SDS011;14565;48.626;8.978;2023-06-22T04:03:43;18.60;;;11.13;;
27025;SDS011;14565;48.626;8.978;2023-06-22T04:06:08;22.80;;;12.30;;
27025;SDS011;14565;48.626;8.978;2023-06-22T04:08:34;15.48;;;10.43;;
27025;SDS011;14565;48.626;8.978;2023-06-22T04:11:00;15.82;;;9.50;;
27025;SDS011;14565;48.626;8.978;2023-06-22T04:13:25;16.77;;;13.10;;
27025;SDS011;14565;48.626;8.978;2023-06-22T04:15:51;17.00;;;13.10;;
27025;SDS011;14565;48.626;8.978;2023-06-22T04:18:17;16.25;;;11.85;;
27025;SDS011;14565;48.626;8.978;2023-06-22T04:20:42;17.67;;;11.10;;
27025;SDS011;14565;48.626;8.978;2023-06-22T04:23:11;18.20;;;11.25;;
27025;SDS011;14565;48.626;8.978;2023-06-22T04:25:37;24.65;;;11.90;;
27025;SDS011;14565;48.626;8.978;2023-06-22T04:28:04;21.05;;;13.93;;
27025;SDS011;14565;48.626;8.978;2023-06-22T04:30:29;18.23;;;12.32;;
27025;SDS011;14565;48.626;8.978;2023-06-22T04:32:56;17.65;;;13.77;;
27025;SDS011;14565;48.626;8.978;2023-06-22T04:35:23;17.27;;;13.80;;
27025;SDS011;14565;48.626;8.978;2023-06-22T04:37:49;18.15;;;13.75;;
27025;SDS011;14565;48.626;8.978;2023-06-22T04:40:19;20.35;;;12.55;;
27025;SDS011;14565;48.626;8.978;2023-06-22T04:42:45;22.27;;;13.05;;
27025;SDS011;14565;48.626;8.978;2023-06-22T04:45:17;18.85;;;13.02;;
27025;SDS011;14565;48.626;8.978;2023-06-22T04:47:43;18.42;;;11.13;;
27025;SDS011;14565;48.626;8.978;2023-06-22T04:50:10;18.02;;;11.65;;
27025;SDS011;14565;48.626;8.978;2023-06-22T04:52:36;16.65;;;12.18;;
27025;SDS011;14565;48.626;8.978;2023-06-22T04:55:02;23.67;;;12.43;;
27025;SDS011;14565;48.626;8.978;2023-06-22T04:57:28;22.13;;;11.98;;
27025;SDS011;14565;48.626;8.978;2023-06-22T05:00:01;21.02;;;10.88;;
27025;SDS011;14565;48.626;8.978;2023-06-22T05:02:36;20.25;;;10.90;;
27025;SDS011;14565;48.626;8.978;2023-06-22T05:05:02;21.23;;;10.90;;
27025;SDS011;14565;48.626;8.978;2023-06-22T05:07:32;22.73;;;11.40;;
27025;SDS011;14565;48.626;8.978;2023-06-22T05:09:58;18.35;;;11.07;;
27025;SDS011;14565;48.626;8.978;2023-06-22T05:12:24;15.40;;;10.65;;
27025;SDS011;14565;48.626;8.978;2023-06-22T05:14:49;17.85;;;10.55;;
27025;SDS011;14565;48.626;8.978;2023-06-22T05:17:15;13.82;;;10.82;;
27025;SDS011;14565;48.626;8.978;2023-06-22T05:19:44;19.25;;;9.70;;
27025;SDS011;14565;48.626;8.978;2023-06-22T05:22:14;17.83;;;10.82;;
27025;SDS011;14565;48.626;8.978;2023-06-22T05:24:40;16.63;;;10.63;;
27025;SDS011;14565;48.626;8.978;2023-06-22T05:27:06;20.35;;;10.15;;
27025;SDS011;14565;48.626;8.978;2023-06-22T05:29:32;12.98;;;8.95;;
27025;SDS011;14565;48.626;8.978;2023-06-22T05:31:58;14.40;;;8.95;;
27025;SDS011;14565;48.626;8.978;2023-06-22T05:34:24;18.30;;;9.50;;
27025;SDS011;14565;48.626;8.978;2023-06-22T05:36:49;20.02;;;9.35;;
27025;SDS011;14565;48.626;8.978;2023-06-22T05:39:15;13.07;;;7.85;;
27025;SDS011;14565;48.626;8.978;2023-06-22T05:41:41;13.93;;;8.45;;
27025;SDS011;14565;48.626;8.978;2023-06-22T05:44:08;14.35;;;7.82;;
27025;SDS011;14565;48.626;8.978;2023-06-22T05:46:33;11.07;;;7.50;;
27025;SDS011;14565;48.626;8.978;2023-06-22T05:48:59;14.25;;;7.30;;
27025;SDS011;14565;48.626;8.978;2023-06-22T05:51:25;8.70;;;7.60;;
27025;SDS011;14565;48.626;8.978;2023-06-22T05:53:50;8.93;;;7.22;;
27025;SDS011;14565;48.626;8.978;2023-06-22T05:56:16;11.77;;;7.93;;
27025;SDS011;14565;48.626;8.978;2023-06-22T05:58:42;9.32;;;7.97;;
27025;SDS011;14565;48.626;8.978;2023-06-22T06:01:08;16.58;;;8.10;;
27025;SDS011;14565;48.626;8.978;2023-06-22T06:03:33;9.13;;;7.20;;
27025;SDS011;14565;48.626;8.978;2023-06-22T06:05:59;11.70;;;7.20;;
27025;SDS011;14565;48.626;8.978;2023-06-22T06:08:27;12.27;;;7.15;;
27025;SDS011;14565;48.626;8.978;2023-06-22T06:10:53;9.50;;;7.35;;
27025;SDS011;14565;48.626;8.978;2023-06-22T06:13:20;9.35;;;7.75;;
27025;SDS011;14565;48.626;8.978;2023-06-22T06:15:45;7.43;;;5.35;;
27025;SDS011;14565;48.626;8.978;2023-06-22T06:18:11;10.63;;;6.72;;
27025;SDS011;14565;48.626;8.978;2023-06-22T06:20:37;10.95;;;6.45;;
27025;SDS011;14565;48.626;8.978;2023-06-22T06:23:02;8.70;;;6.43;;
27025;SDS011;14565;48.626;8.978;2023-06-22T06:25:28;8.77;;;6.70;;
27025;SDS011;14565;48.626;8.978;2023-06-22T06:27:53;10.82;;;6.20;;
27025;SDS011;14565;48.626;8.978;2023-06-22T06:30:20;10.35;;;6.28;;
27025;SDS011;14565;48.626;8.978;2023-06-22T06:32:46;10.27;;;6.18;;
27025;SDS011;14565;48.626;8.978;2023-06-22T06:35:13;7.90;;;5.30;;
27025;SDS011;14565;48.626;8.978;2023-06-22T06:37:41;9.75;;;5.45;;
27025;SDS011;14565;48.626;8.978;2023-06-22T06:40:09;8.13;;;5.45;;
27025;SDS011;14565;48.626;8.978;2023-06-22T06:42:40;12.93;;;5.88;;
27025;SDS011;14565;48.626;8.978;2023-06-22T06:45:10;12.20;;;5.40;;
27025;SDS011;14565;48.626;8.978;2023-06-22T06:47:41;7.75;;;5.35;;
27025;SDS011;14565;48.626;8.978;2023-06-22T06:50:06;11.00;;;5.00;;
27025;SDS011;14565;48.626;8.978;2023-06-22T06:52:32;8.20;;;4.82;;
27025;SDS011;14565;48.626;8.978;2023-06-22T06:54:58;10.70;;;4.43;;
27025;SDS011;14565;48.626;8.978;2023-06-22T06:57:24;10.33;;;4.97;;
27025;SDS011;14565;48.626;8.978;2023-06-22T06:59:54;8.93;;;4.85;;
27025;SDS011;14565;48.626;8.978;2023-06-22T07:02:21;8.98;;;4.93;;
27025;SDS011;14565;48.626;8.978;2023-06-22T07:04:47;9.30;;;5.83;;
27025;SDS011;14565;48.626;8.978;2023-06-22T07:07:13;10.10;;;4.78;;
27025;SDS011;14565;48.626;8.978;2023-06-22T07:09:39;7.20;;;4.47;;
27025;SDS011;14565;48.626;8.978;2023-06-22T07:12:05;9.98;;;5.53;;
27025;SDS011;14565;48.626;8.978;2023-06-22T07:14:31;9.87;;;4.97;;
27025;SDS011;14565;48.626;8.978;2023-06-22T07:16:57;7.97;;;5.20;;
27025;SDS011;14565;48.626;8.978;2023-06-22T07:19:26;8.90;;;4.67;;
27025;SDS011;14565;48.626;8.978;2023-06-22T07:21:53;9.23;;;5.00;;
27025;SDS011;14565;48.626;8.978;2023-06-22T07:24:20;10.98;;;5.43;;
27025;SDS011;14565;48.626;8.978;2023-06-22T07:26:49;10.32;;;4.95;;
27025;SDS011;14565;48.626;8.978;2023-06-22T07:29:16;10.07;;;4.93;;
27025;SDS011;14565;48.626;8.978;2023-06-22T07:31:42;6.60;;;4.40;;
27025;SDS011;14565;48.626;8.978;2023-06-22T07:34:08;11.00;;;4.78;;
27025;SDS011;14565;48.626;8.978;2023-06-22T07:36:34;9.00;;;4.82;;
27025;SDS011;14565;48.626;8.978;2023-06-22T07:39:01;6.53;;;4.43;;
27025;SDS011;14565;48.626;8.978;2023-06-22T07:41:28;12.35;;;5.03;;
27025;SDS011;14565;48.626;8.978;2023-06-22T07:43:53;9.65;;;4.88;;
27025;SDS011;14565;48.626;8.978;2023-06-22T07:46:19;7.63;;;4.40;;
27025;SDS011;14565;48.626;8.978;2023-06-22T07:48:44;12.32;;;5.70;;
27025;SDS011;14565;48.626;8.978;2023-06-22T07:51:10;9.80;;;5.25;;
27025;SDS011;14565;48.626;8.978;2023-06-22T07:56:05;15.52;;;5.72;;
27025;SDS011;14565;48.626;8.978;2023-06-22T07:58:32;9.07;;;5.50;;
27025;SDS011;14565;48.626;8.978;2023-06-22T08:00:58;14.70;;;5.38;;
27025;SDS011;14565;48.626;8.978;2023-06-22T08:03:24;14.25;;;5.63;;
27025;SDS011;14565;48.626;8.978;2023-06-22T08:05:49;10.95;;;5.50;;
27025;SDS011;14565;48.626;8.978;2023-06-22T08:08:15;9.48;;;5.45;;
27025;SDS011;14565;48.626;8.978;2023-06-22T08:10:41;12.23;;;5.47;;
27025;SDS011;14565;48.626;8.978;2023-06-22T08:13:07;12.88;;;6.13;;
27025;SDS011;14565;48.626;8.978;2023-06-22T08:15:33;8.90;;;5.35;;
27025;SDS011;14565;48.626;8.978;2023-06-22T08:17:59;11.18;;;5.28;;
27025;SDS011;14565;48.626;8.978;2023-06-22T08:20:25;18.38;;;6.03;;
27025;SDS011;14565;48.626;8.978;2023-06-22T08:22:53;14.95;;;5.93;;
27025;SDS011;14565;48.626;8.978;2023-06-22T08:25:19;14.27;;;6.00;;
27025;SDS011;14565;48.626;8.978;2023-06-22T08:27:46;15.23;;;5.80;;
27025;SDS011;14565;48.626;8.978;2023-06-22T08:30:12;13.68;;;6.20;;
27025;SDS011;14565;48.626;8.978;2023-06-22T08:32:38;12.35;;;5.60;;
27025;SDS011;14565;48.626;8.978;2023-06-22T08:35:04;8.95;;;5.53;;
27025;SDS011;14565;48.626;8.978;2023-06-22T08:37:33;14.18;;;5.80;;
27025;SDS011;14565;48.626;8.978;2023-06-22T08:40:00;11.13;;;5.63;;
27025;SDS011;14565;48.626;8.978;2023-06-22T08:42:29;12.93;;;5.53;;
27025;SDS011;14565;48.626;8.978;2023-06-22T08:44:55;12.18;;;5.47;;
27025;SDS011;14565;48.626;8.978;2023-06-22T08:47:20;14.77;;;5.85;;
27025;SDS011;14565;48.626;8.978;2023-06-22T08:49:46;21.55;;;6.15;;
27025;SDS011;14565;48.626;8.978;2023-06-22T08:52:12;18.75;;;6.10;;
27025;SDS011;14565;48.626;8.978;2023-06-22T08:54:38;25.65;;;6.53;;
27025;SDS011;14565;48.626;8.978;2023-06-22T08:57:04;15.50;;;5.85;;
27025;SDS011;14565;48.626;8.978;2023-06-22T08:59:29;11.95;;;5.43;;
27025;SDS011;14565;48.626;8.978;2023-06-22T09:01:55;12.13;;;5.88;;
27025;SDS011;14565;48.626;8.978;2023-06-22T09:04:21;13.98;;;6.30;;
27025;SDS011;14565;48.626;8.978;2023-06-22T09:06:47;9.13;;;4.97;;
27025;SDS011;14565;48.626;8.978;2023-06-22T09:09:15;13.68;;;5.88;;
27025;SDS011;14565;48.626;8.978;2023-06-22T09:11:41;12.15;;;5.85;;
27025;SDS011;14565;48.626;8.978;2023-06-22T09:14:07;11.23;;;5.28;;
27025;SDS011;14565;48.626;8.978;2023-06-22T09:16:33;12.80;;;5.75;;
27025;SDS011;14565;48.626;8.978;2023-06-22T09:18:59;11.70;;;5.43;;
27025;SDS011;14565;48.626;8.978;2023-06-22T09:21:25;10.63;;;5.10;;
27025;SDS011;14565;48.626;8.978;2023-06-22T09:23:50;14.65;;;5.57;;
27025;SDS011;14565;48.626;8.978;2023-06-22T09:26:17;12.48;;;5.43;;
27025;SDS011;14565;48.626;8.978;2023-06-22T09:28:43;15.60;;;5.90;;
27025;SDS011;14565;48.626;8.978;2023-06-22T09:31:08;14.60;;;6.40;;
27025;SDS011;14565;48.626;8.978;2023-06-22T09:33:35;11.13;;;6.10;;
27025;SDS011;14565;48.626;8.978;2023-06-22T09:36:01;14.43;;;6.05;;
27025;SDS011;14565;48.626;8.978;2023-06-22T09:38:26;11.35;;;5.13;;
27025;SDS011;14565;48.626;8.978;2023-06-22T09:40:52;14.75;;;5.45;;
27025;SDS011;14565;48.626;8.978;2023-06-22T09:43:18;10.48;;;5.85;;
27025;SDS011;14565;48.626;8.978;2023-06-22T09:45:43;12.85;;;5.30;;
27025;SDS011;14565;48.626;8.978;2023-06-22T09:48:09;13.75;;;5.75;;
27025;SDS011;14565;48.626;8.978;2023-06-22T09:50:35;15.73;;;5.15;;
27025;SDS011;14565;48.626;8.978;2023-06-22T09:53:01;12.95;;;6.20;;
27025;SDS011;14565;48.626;8.978;2023-06-22T09:55:27;16.90;;;6.13;;
27025;SDS011;14565;48.626;8.978;2023-06-22T09:57:52;27.10;;;6.15;;
27025;SDS011;14565;48.626;8.978;2023-06-22T10:00:19;11.77;;;5.78;;
27025;SDS011;14565;48.626;8.978;2023-06-22T10:02:46;8.85;;;5.00;;
27025;SDS011;14565;48.626;8.978;2023-06-22T10:05:12;13.80;;;5.22;;
27025;SDS011;14565;48.626;8.978;2023-06-22T10:07:38;15.07;;;5.82;;
27025;SDS011;14565;48.626;8.978;2023-06-22T10:10:07;13.93;;;6.07;;
27025;SDS011;14565;48.626;8.978;2023-06-22T10:12:33;18.45;;;6.18;;
27025;SDS011;14565;48.626;8.978;2023-06-22T10:14:59;11.45;;;5.03;;
27025;SDS011;14565;48.626;8.978;2023-06-22T10:17:24;12.70;;;5.28;;
27025;SDS011;14565;48.626;8.978;2023-06-22T10:19:50;15.20;;;5.93;;
27025;SDS011;14565;48.626;8.978;2023-06-22T10:22:16;14.15;;;5.85;;
27025;SDS011;14565;48.626;8.978;2023-06-22T10:24:41;11.13;;;5.55;;
27025;SDS011;14565;48.626;8.978;2023-06-22T10:27:11;13.63;;;5.93;;
27025;SDS011;14565;48.626;8.978;2023-06-22T10:29:37;17.80;;;5.78;;
27025;SDS011;14565;48.626;8.978;2023-06-22T10:32:03;11.55;;;5.43;;
27025;SDS011;14565;48.626;8.978;2023-06-22T10:34:29;13.85;;;5.82;;
27025;SDS011;14565;48.626;8.978;2023-06-22T10:36:54;11.43;;;5.72;;
27025;SDS011;14565;48.626;8.978;2023-06-22T10:39:20;15.50;;;6.13;;
27025;SDS011;14565;48.626;8.978;2023-06-22T10:41:45;11.88;;;6.03;;
27025;SDS011;14565;48.626;8.978;2023-06-22T10:44:11;11.48;;;5.40;;
27025;SDS011;14565;48.626;8.978;2023-06-22T10:46:37;15.40;;;5.63;;
27025;SDS011;14565;48.626;8.978;2023-06-22T10:49:03;14.13;;;6.22;;
27025;SDS011;14565;48.626;8.978;2023-06-22T10:51:28;11.38;;;5.78;;
27025;SDS011;14565;48.626;8.978;2023-06-22T10:53:56;16.23;;;5.65;;
27025;SDS011;14565;48.626;8.978;2023-06-22T10:56:21;11.15;;;5.85;;
27025;SDS011;14565;48.626;8.978;2023-06-22T10:58:47;21.77;;;6.65;;
27025;SDS011;14565;48.626;8.978;2023-06-22T11:01:12;14.18;;;6.38;;
27025;SDS011;14565;48.626;8.978;2023-06-22T11:03:39;13.48;;;6.30;;
27025;SDS011;14565;48.626;8.978;2023-06-22T11:06:04;14.05;;;6.28;;
27025;SDS011;14565;48.626;8.978;2023-06-22T11:08:30;11.85;;;5.57;;
27025;SDS011;14565;48.626;8.978;2023-06-22T11:10:55;12.77;;;6.13;;
27025;SDS011;14565;48.626;8.978;2023-06-22T11:13:21;12.75;;;5.80;;
27025;SDS011;14565;48.626;8.978;2023-06-22T11:15:47;11.75;;;6.05;;
27025;SDS011;14565;48.626;8.978;2023-06-22T11:18:12;15.18;;;5.88;;
27025;SDS011;14565;48.626;8.978;2023-06-22T11:20:38;14.32;;;6.85;;
27025;SDS011;14565;48.626;8.978;2023-06-22T11:23:04;13.88;;;6.60;;
27025;SDS011;14565;48.626;8.978;2023-06-22T11:27:57;15.40;;;6.38;;
27025;SDS011;14565;48.626;8.978;2023-06-22T11:30:22;17.73;;;5.97;;
27025;SDS011;14565;48.626;8.978;2023-06-22T11:32:48;13.00;;;6.78;;
27025;SDS011;14565;48.626;8.978;2023-06-22T11:35:14;14.90;;;6.00;;
27025;SDS011;14565;48.626;8.978;2023-06-22T11:37:39;11.88;;;6.30;;
27025;SDS011;14565;48.626;8.978;2023-06-22T11:40:05;11.77;;;6.20;;
27025;SDS011;14565;48.626;8.978;2023-06-22T11:42:34;11.43;;;5.93;;
27025;SDS011;14565;48.626;8.978;2023-06-22T11:45:00;58.30;;;8.40;;
27025;SDS011;14565;48.626;8.978;2023-06-22T11:47:25;21.17;;;6.60;;
27025;SDS011;14565;48.626;8.978;2023-06-22T11:49:51;17.92;;;6.22;;
27025;SDS011;14565;48.626;8.978;2023-06-22T11:52:16;16.20;;;6.53;;
27025;SDS011;14565;48.626;8.978;2023-06-22T11:54:42;10.25;;;6.47;;
27025;SDS011;14565;48.626;8.978;2023-06-22T11:57:08;14.18;;;6.35;;
27025;SDS011;14565;48.626;8.978;2023-06-22T11:59:34;18.27;;;7.03;;
27025;SDS011;14565;48.626;8.978;2023-06-22T12:01:59;14.95;;;6.53;;
27025;SDS011;14565;48.626;8.978;2023-06-22T12:04:25;12.88;;;7.00;;
27025;SDS011;14565;48.626;8.978;2023-06-22T12:06:51;23.25;;;7.97;;
27025;SDS011;14565;48.626;8.978;2023-06-22T12:09:16;12.60;;;6.40;;
27025;SDS011;14565;48.626;8.978;2023-06-22T12:11:42;20.20;;;8.00;;
27025;SDS011;14565;48.626;8.978;2023-06-22T12:14:08;12.70;;;6.60;;
27025;SDS011;14565;48.626;8.978;2023-06-22T12:16:33;10.50;;;6.47;;
27025;SDS011;14565;48.626;8.978;2023-06-22T12:18:59;13.13;;;6.60;;
27025;SDS011;14565;48.626;8.978;2023-06-22T12:21:24;14.80;;;6.72;;
27025;SDS011;14565;48.626;8.978;2023-06-22T12:23:50;10.82;;;6.07;;
27025;SDS011;14565;48.626;8.978;2023-06-22T12:26:16;13.77;;;6.80;;
27025;SDS011;14565;48.626;8.978;2023-06-22T12:28:41;16.98;;;6.55;;
27025;SDS011;14565;48.626;8.978;2023-06-22T12:31:07;9.43;;;6.10;;
27025;SDS011;14565;48.626;8.978;2023-06-22T12:33:33;13.38;;;6.25;;
27025;SDS011;14565;48.626;8.978;2023-06-22T12:35:58;11.05;;;6.40;;
27025;SDS011;14565;48.626;8.978;2023-06-22T12:38:24;10.20;;;6.43;;
27025;SDS011;14565;48.626;8.978;2023-06-22T12:40:51;16.80;;;6.60;;
27025;SDS011;14565;48.626;8.978;2023-06-22T12:43:17;18.70;;;7.28;;
27025;SDS011;14565;48.626;8.978;2023-06-22T12:45:43;14.18;;;6.55;;
27025;SDS011;14565;48.626;8.978;2023-06-22T12:48:08;15.63;;;6.53;;
27025;SDS011;14565;48.626;8.978;2023-06-22T12:50:34;11.85;;;6.50;;
27025;SDS011;14565;48.626;8.978;2023-06-22T12:53:00;13.98;;;6.45;;
27025;SDS011;14565;48.626;8.978;2023-06-22T12:55:27;12.60;;;6.47;;
27025;SDS011;14565;48.626;8.978;2023-06-22T12:57:53;16.63;;;6.18;;
27025;SDS011;14565;48.626;8.978;2023-06-22T13:00:18;11.48;;;6.07;;
27025;SDS011;14565;48.626;8.978;2023-06-22T13:02:44;14.93;;;6.50;;
27025;SDS011;14565;48.626;8.978;2023-06-22T13:05:10;18.02;;;6.40;;
27025;SDS011;14565;48.626;8.978;2023-06-22T13:07:36;12.25;;;6.25;;
27025;SDS011;14565;48.626;8.978;2023-06-22T13:10:02;14.27;;;5.45;;
27025;SDS011;14565;48.626;8.978;2023-06-22T13:12:27;17.13;;;6.60;;
27025;SDS011;14565;48.626;8.978;2023-06-22T13:14:53;10.90;;;5.68;;
27025;SDS011;14565;48.626;8.978;2023-06-22T13:17:19;17.65;;;6.00;;
27025;SDS011;14565;48.626;8.978;2023-06-22T13:19:45;15.32;;;6.43;;
27025;SDS011;14565;48.626;8.978;2023-06-22T13:27:36;17.50;;;5.95;;
27025;SDS011;14565;48.626;8.978;2023-06-22T13:30:05;10.45;;;6.18;;
27025;SDS011;14565;48.626;8.978;2023-06-22T13:32:32;13.90;;;6.15;;
27025;SDS011;14565;48.626;8.978;2023-06-22T13:34:57;12.38;;;5.75;;
27025;SDS011;14565;48.626;8.978;2023-06-22T13:37:23;17.15;;;5.93;;
27025;SDS011;14565;48.626;8.978;2023-06-22T13:39:48;11.52;;;5.90;;
27025;SDS011;14565;48.626;8.978;2023-06-22T13:42:14;16.77;;;6.68;;
27025;SDS011;14565;48.626;8.978;2023-06-22T13:44:40;17.50;;;6.28;;
27025;SDS011;14565;48.626;8.978;2023-06-22T13:47:06;15.95;;;6.00;;
27025;SDS011;14565;48.626;8.978;2023-06-22T13:49:32;17.02;;;6.50;;
27025;SDS011;14565;48.626;8.978;2023-06-22T13:51:57;14.80;;;6.30;;
27025;SDS011;14565;48.626;8.978;2023-06-22T13:54:23;17.85;;;6.30;;
27025;SDS011;14565;48.626;8.978;2023-06-22T13:56:49;12.95;;;6.18;;
27025;SDS011;14565;48.626;8.978;2023-06-22T13:59:15;25.42;;;7.05;;
27025;SDS011;14565;48.626;8.978;2023-06-22T14:01:40;21.02;;;6.68;;
27025;SDS011;14565;48.626;8.978;2023-06-22T14:04:06;29.67;;;6.78;;
27025;SDS011;14565;48.626;8.978;2023-06-22T14:06:32;15.90;;;6.25;;
27025;SDS011;14565;48.626;8.978;2023-06-22T14:09:01;17.05;;;6.35;;
27025;SDS011;14565;48.626;8.978;2023-06-22T14:11:27;18.17;;;6.40;;
27025;SDS011;14565;48.626;8.978;2023-06-22T14:13:53;17.80;;;5.95;;
27025;SDS011;14565;48.626;8.978;2023-06-22T14:16:19;17.13;;;5.20;;
27025;SDS011;14565;48.626;8.978;2023-06-22T14:18:45;21.83;;;5.97;;
27025;SDS011;14565;48.626;8.978;2023-06-22T14:21:11;17.15;;;5.53;;
27025;SDS011;14565;48.626;8.978;2023-06-22T14:23:36;14.85;;;5.20;;
27025;SDS011;14565;48.626;8.978;2023-06-22T14:26:02;15.00;;;4.70;;
27025;SDS011;14565;48.626;8.978;2023-06-22T14:28:28;16.35;;;4.65;;
27025;SDS011;14565;48.626;8.978;2023-06-22T14:30:54;13.93;;;4.18;;
27025;SDS011;14565;48.626;8.978;2023-06-22T14:33:21;12.57;;;4.00;;
27025;SDS011;14565;48.626;8.978;2023-06-22T14:35:47;21.92;;;5.03;;
27025;SDS011;14565;48.626;8.978;2023-06-22T14:38:12;11.52;;;3.65;;
27025;SDS011;14565;48.626;8.978;2023-06-22T14:40:38;17.27;;;3.97;;
27025;SDS011;14565;48.626;8.978;2023-06-22T14:43:03;17.52;;;3.80;;
27025;SDS011;14565;48.626;8.978;2023-06-22T14:45:29;21.70;;;4.60;;